Date,TemperatureHighF,TemperatureAvgF,TemperatureLowF,DewpointHighF,DewpointAvgF,DewpointLowF,HumidityHigh,HumidityAvg,HumidityLow,PressureMaxIn,PressureMinIn,WindSpeedMaxMPH,WindSpeedAvgMPH,GustSpeedMaxMPH,PrecipitationSumIn
2013-1-23,50,49,48,49,48,46,99,97,86,0.00,0.00,4,2,8,0.00
2013-1-24,59,52,48,55,51,48,100,95,81,0.00,0.00,4,1,7,0.49
2013-1-25,62,55,50,55,52,49,100,93,75,0.00,0.00,5,2,9,0.00
2013-1-26,50,47,43,50,47,43,100,100,99,0.00,0.00,2,1,4,0.00
2013-2-1,69,57,44,47,45,43,96,67,42,0.00,0.00,4,2,8,0.00
2013-2-2,60,47,40,50,44,40,100,91,67,0.00,0.00,5,2,10,0.00
2013-2-3,62,48,39,48,44,39,100,88,60,0.00,0.00,5,2,10,0.00
2013-2-4,41,40,39,41,40,39,100,99,99,0.00,0.00,2,1,3,0.00
2013-2-7,53,44,39,40,38,35,98,83,51,0.00,0.00,6,3,14,0.00
2013-2-8,59,45,34,40,35,30,99,73,33,0.00,0.00,8,3,17,0.12
2013-2-9,61,44,30,35,30,23,96,65,26,0.00,0.00,6,2,13,0.00
2013-2-10,64,44,29,40,34,28,97,73,33,0.00,0.00,5,2,14,0.00
2013-2-11,61,42,33,41,37,32,97,85,37,0.00,0.00,5,2,8,0.00
2013-2-12,63,46,32,42,38,32,99,78,43,0.00,0.00,5,2,12,0.00
2013-2-13,66,46,32,47,40,32,99,81,47,0.00,0.00,6,2,10,0.00
2013-2-14,71,50,34,52,43,33,99,79,44,0.00,0.00,6,2,10,0.00
2013-2-15,72,52,36,47,41,36,99,73,33,0.00,0.00,4,1,9,0.00
2013-2-16,57,44,40,46,41,39,98,92,66,0.00,0.00,2,1,5,0.00
2013-2-18,54,53,52,43,42,41,70,67,61,0.00,0.00,3,3,8,0.00
2013-2-19,52,44,36,42,34,30,99,69,49,0.00,0.00,8,4,19,0.00
2013-2-20,60,43,31,36,32,29,96,70,34,0.00,0.00,10,4,18,0.21
2013-2-26,71,54,34,39,33,23,89,51,17,0.00,0.00,6,3,13,0.00
2013-2-27,71,52,33,47,38,31,96,66,32,0.00,0.00,7,2,17,0.00
2013-2-28,71,57,45,54,49,44,98,78,51,0.00,0.00,6,2,10,0.00
2013-3-1,74,55,41,51,47,41,100,78,35,0.00,0.00,5,2,11,0.00
2013-3-6,56,48,38,44,41,36,99,77,51,0.00,0.00,8,4,17,0.00
2013-3-7,55,45,36,43,39,36,99,82,49,0.00,0.00,5,2,9,0.00
2013-3-8,64,49,35,42,38,32,99,72,31,0.00,0.00,9,3,18,0.00
2013-3-9,71,52,36,46,40,31,97,69,23,0.00,0.00,6,2,14,0.00
2013-3-10,72,53,36,45,39,26,98,68,21,0.00,0.00,7,3,14,0.00
2013-3-11,44,42,40,43,41,39,97,97,96,0.00,0.00,2,1,3,0.00
2013-3-13,80,61,40,54,48,40,99,68,26,0.00,0.00,5,2,9,0.00
2013-3-14,74,56,45,55,49,44,99,80,37,0.00,0.00,5,2,9,0.00
2013-3-15,75,56,42,55,45,42,98,74,35,0.00,0.00,12,3,22,0.00
2013-3-16,76,57,40,48,41,28,99,63,17,0.00,0.00,16,4,30,0.00
2013-3-17,70,56,42,45,40,35,87,59,29,0.00,0.00,9,4,17,0.00
2013-3-18,67,52,39,48,44,38,98,75,42,0.00,0.00,7,2,11,0.00
2013-3-19,58,51,42,51,45,40,97,81,55,0.00,0.00,4,2,9,0.00
2013-3-20,61,52,46,55,50,45,99,94,78,0.00,0.00,7,2,16,0.08
2013-3-21,67,52,38,49,41,37,99,68,37,0.00,0.00,7,3,15,0.43
2013-3-22,68,52,37,41,35,26,96,58,21,0.00,0.00,8,3,13,0.00
2013-3-23,68,52,37,43,38,32,95,65,29,0.00,0.00,6,2,12,0.00
2013-3-24,71,53,39,49,43,38,97,74,34,0.00,0.00,8,3,12,0.00
2013-3-25,59,48,41,47,44,41,100,86,59,0.00,0.00,8,2,16,0.00
2013-3-26,66,52,42,50,45,42,99,80,45,0.00,0.00,7,3,13,0.00
2013-3-27,61,52,44,52,48,43,98,86,66,0.00,0.00,6,2,14,0.00
2013-3-28,62,54,49,55,51,48,99,91,73,0.00,0.00,4,2,8,0.00
2013-3-29,76,59,47,55,51,47,100,79,42,0.00,0.00,6,3,12,0.07
2013-3-30,66,56,50,55,51,49,98,85,63,0.00,0.00,6,2,14,0.00
2013-3-31,61,55,50,56,53,48,99,94,78,0.00,0.00,6,2,15,0.01
2013-4-1,64,56,49,54,52,48,100,87,68,0.00,0.00,5,2,13,1.45
2013-4-2,69,54,46,56,49,46,100,87,51,0.00,0.00,7,3,12,0.00
2013-4-3,75,55,47,56,50,47,100,86,50,0.00,0.00,7,3,14,0.00
2013-4-4,61,54,49,57,52,48,100,95,87,0.00,0.00,8,3,16,0.00
2013-4-5,63,56,52,54,52,50,100,87,66,0.00,0.00,9,3,20,0.00
2013-4-6,53,52,52,52,51,51,99,96,92,0.00,0.00,3,1,5,0.00
2013-4-10,86,77,64,52,47,38,55,36,20,0.00,0.00,12,6,25,0.00
2013-4-11,76,64,51,48,44,40,82,51,31,0.00,0.00,10,5,22,0.00
2013-4-12,78,57,43,54,47,38,97,73,24,0.00,0.00,8,3,16,0.00
2013-4-13,76,59,44,49,42,34,98,60,25,0.00,0.00,11,4,22,0.00
2013-4-14,71,56,42,45,38,21,87,54,18,0.00,0.00,19,6,34,0.00
2013-4-15,61,52,44,44,34,28,91,53,30,0.00,0.00,15,8,31,0.00
2013-4-16,69,56,45,39,31,23,62,41,19,0.00,0.00,9,6,20,0.00
2013-4-17,73,58,42,40,33,21,73,45,14,0.00,0.00,7,4,17,0.00
2013-4-18,77,59,43,48,39,31,88,54,20,0.00,0.00,7,3,15,0.00
2013-4-19,70,52,45,51,46,43,95,80,48,0.00,0.00,6,1,10,0.00
2013-4-23,82,67,46,47,36,13,95,41,8,0.00,0.00,8,4,16,0.00
2013-4-24,65,52,44,50,46,43,99,80,57,0.00,0.00,8,4,18,0.00
2013-4-25,67,55,49,50,47,45,88,75,51,0.00,0.00,8,3,15,0.00
2013-4-26,71,54,44,54,48,42,97,81,54,0.00,0.00,8,3,14,0.00
2013-4-27,75,56,47,56,49,46,100,81,47,0.00,0.00,8,3,14,0.00
2013-4-28,86,61,44,57,49,43,100,73,29,0.00,0.00,5,2,14,0.00
2013-4-29,90,71,53,54,50,45,91,53,24,0.00,0.00,10,3,20,0.00
2013-4-30,86,69,51,47,41,29,83,43,13,0.00,0.00,7,3,16,0.00
2013-5-1,88,69,51,46,30,12,69,31,7,0.00,0.00,10,4,24,0.00
2013-5-2,90,68,46,44,36,20,82,41,9,0.00,0.00,7,2,16,0.00
2013-5-3,91,70,46,51,42,32,77,42,15,0.00,0.00,6,2,13,0.00
2013-5-4,87,64,47,50,45,29,90,59,13,0.00,0.00,7,3,17,0.00
2013-5-5,63,58,55,50,49,48,82,72,61,0.00,0.00,9,4,22,0.00
2013-5-6,70,60,50,52,50,46,93,70,46,0.00,0.00,6,2,16,0.00
2013-5-7,70,60,50,54,50,46,97,74,44,0.00,0.00,8,3,16,0.00
2013-5-8,66,55,50,54,50,48,97,84,63,0.00,0.00,7,3,14,0.00
2013-5-9,73,58,48,54,50,46,97,79,52,0.00,0.00,8,3,14,0.00
2013-5-10,74,58,48,57,52,47,97,80,54,0.00,0.00,8,3,14,0.00
2013-5-11,85,61,47,60,52,47,100,77,39,0.00,0.00,6,3,10,0.00
2013-5-12,85,62,46,62,52,46,100,74,30,0.00,0.00,7,3,14,0.00
2013-5-13,86,64,47,62,52,46,100,71,32,0.00,0.00,8,3,16,0.00
2013-5-14,89,66,50,56,49,37,92,60,16,0.00,0.00,7,3,16,0.00
2013-5-15,83,62,43,50,45,41,93,60,25,0.00,0.00,8,2,18,0.00
2013-5-16,74,63,54,52,49,46,84,62,42,0.00,0.00,9,4,21,0.00
2013-5-17,72,59,46,47,45,43,91,63,38,0.00,0.00,6,3,15,0.00
2013-5-18,82,63,42,48,44,40,96,58,25,0.00,0.00,8,4,18,0.00
2013-5-19,85,68,48,49,43,35,83,46,17,0.00,0.00,7,3,17,0.00
2013-5-20,88,68,50,52,45,34,89,53,15,0.00,0.00,8,3,15,0.00
2013-5-21,75,61,47,46,40,33,93,53,23,0.00,0.00,10,5,24,0.00
2013-5-22,71,58,46,40,32,26,58,40,19,0.00,0.00,9,6,22,0.00
2013-5-23,72,59,44,42,39,37,76,49,30,0.00,0.00,8,4,16,0.00
2013-5-24,75,59,42,46,42,35,89,55,25,0.00,0.00,5,3,13,0.00
2013-5-25,76,59,41,48,44,38,93,61,34,0.00,0.00,5,2,15,0.00
2013-5-26,72,62,51,51,48,46,90,64,43,0.00,0.00,9,4,22,0.00
2013-5-27,63,56,48,57,51,44,98,83,67,0.00,0.00,5,2,13,0.00
2013-5-28,72,60,55,58,56,55,100,90,56,0.00,0.00,5,2,10,0.00
2013-5-29,79,69,56,54,51,45,83,55,39,0.00,0.00,7,4,18,0.00
2013-5-30,84,65,44,46,43,35,94,50,21,0.00,0.00,7,2,16,0.00
2013-5-31,92,70,48,54,48,43,86,51,21,0.00,0.00,5,2,13,0.00
2013-6-1,95,74,52,58,50,43,90,49,22,0.00,0.00,8,2,19,0.00
2013-6-2,86,68,52,56,50,47,84,56,31,0.00,0.00,8,3,14,0.00
2013-6-3,68,58,49,52,50,45,93,74,55,0.00,0.00,7,3,20,0.00
2013-6-4,66,56,54,53,51,50,88,82,61,0.00,0.00,6,3,14,0.00
2013-6-5,72,58,52,54,51,49,90,79,53,0.00,0.00,5,3,12,0.00
2013-6-6,76,60,51,56,52,49,95,77,50,0.00,0.00,7,4,13,0.00
2013-6-7,90,67,50,63,55,50,99,71,38,0.00,0.00,6,2,11,0.00
2013-6-8,92,69,56,64,57,52,95,69,39,0.00,0.00,8,3,15,0.00
2013-6-9,65,59,56,54,53,52,92,82,69,0.00,0.00,7,3,14,0.00
2013-6-10,62,58,55,56,55,53,98,89,75,0.00,0.00,6,2,14,0.00
2013-6-11,78,64,54,59,55,51,97,75,43,0.00,0.00,5,2,13,0.00
2013-6-12,86,65,45,52,42,26,99,54,11,0.00,0.00,9,3,20,0.00
2013-6-13,84,66,47,46,43,39,80,46,23,0.00,0.00,8,3,19,0.00
2013-6-14,88,68,50,51,46,29,88,53,13,0.00,0.00,7,3,14,0.00
2013-6-15,81,62,46,54,50,44,96,67,38,0.00,0.00,8,3,16,0.00
2013-6-16,87,67,46,53,48,44,96,58,24,0.00,0.00,8,3,18,0.00
2013-6-17,79,62,48,54,50,45,91,67,41,0.00,0.00,8,3,20,0.00
2013-6-18,74,64,52,52,48,43,87,59,34,0.00,0.00,8,4,20,0.00
2013-6-19,81,66,51,49,44,37,78,50,21,0.00,0.00,7,4,18,0.00
2013-6-20,84,67,48,49,44,36,86,49,24,0.00,0.00,8,3,20,0.00
2013-6-21,88,69,47,50,45,38,91,50,22,0.00,0.00,6,2,15,0.00
2013-6-22,91,72,51,52,47,36,86,47,16,0.00,0.00,8,3,16,0.00
2013-6-23,71,63,56,60,56,49,92,78,57,0.00,0.00,5,3,12,0.00
2013-6-24,63,59,57,58,56,54,99,89,79,0.00,0.00,5,2,10,0.00
2013-6-25,64,61,59,63,61,58,100,98,94,0.00,0.00,5,2,16,0.00
2013-6-26,79,68,61,66,62,60,100,85,59,0.00,0.00,5,2,11,1.05
2013-6-27,89,72,58,68,62,58,100,76,46,0.00,0.00,5,2,10,0.00
2013-6-28,98,79,60,71,61,47,99,62,19,0.00,0.00,6,2,15,0.00
2013-6-29,103,81,60,67,61,52,95,56,23,0.00,0.00,4,2,10,0.00
2013-6-30,94,75,58,66,60,56,95,63,38,0.00,0.00,5,2,10,0.00
2013-7-1,95,74,56,68,60,55,97,66,36,0.00,0.00,6,2,12,0.00
2013-7-2,90,71,59,66,59,56,91,69,42,0.00,0.00,6,3,16,0.00
2013-7-3,88,70,58,65,59,56,96,71,42,0.00,0.00,6,2,12,0.00
2013-7-4,98,78,62,66,57,41,84,53,17,0.00,0.00,8,3,20,0.00
2013-7-5,82,68,54,59,52,43,85,60,32,0.00,0.00,6,3,12,0.00
2013-7-6,77,63,52,58,54,51,96,75,51,0.00,0.00,5,2,12,0.00
2013-7-7,80,62,52,60,53,50,94,77,44,0.00,0.00,5,3,12,0.00
2013-7-8,82,62,52,59,54,50,95,76,45,0.00,0.00,5,2,10,0.00
2013-7-9,93,68,52,58,53,46,100,69,23,0.00,0.00,5,2,10,0.00
2013-7-10,81,62,50,58,52,49,98,75,39,0.00,0.00,7,3,11,0.00
2013-7-11,75,59,50,57,52,48,97,79,52,0.00,0.00,6,3,13,0.00
2013-7-12,78,61,52,58,53,50,96,78,51,0.00,0.00,6,2,12,0.00
2013-7-13,84,63,47,59,52,46,97,72,33,0.00,0.00,6,2,12,0.00
2013-7-14,78,60,51,57,53,50,99,79,45,0.00,0.00,6,3,14,0.00
2013-7-15,69,57,50,54,51,49,98,82,58,0.00,0.00,6,3,13,0.00
2013-7-16,69,59,53,56,53,51,96,83,65,0.00,0.00,5,3,13,0.00
2013-7-17,80,62,50,60,54,48,98,79,47,0.00,0.00,5,2,13,0.00
2013-7-18,80,63,54,61,55,52,100,80,45,0.00,0.00,6,3,12,0.00
2013-7-19,84,63,51,62,55,51,100,78,44,0.00,0.00,6,2,12,0.00
2013-7-20,85,62,50,62,54,50,100,77,42,0.00,0.00,6,2,12,0.00
2013-7-21,80,63,53,57,53,50,94,73,42,0.00,0.00,6,3,14,0.00
2013-7-22,83,64,50,58,54,48,95,72,39,0.00,0.00,6,2,17,0.00
2013-7-23,79,67,58,59,56,53,88,69,46,0.00,0.00,4,2,9,0.00
2013-7-24,83,66,54,61,56,53,99,73,43,0.00,0.00,6,3,12,0.00
2013-7-25,79,62,53,58,54,52,98,76,47,0.00,0.00,6,3,12,0.00
2013-7-26,79,62,53,60,54,51,96,78,50,0.00,0.00,6,3,15,0.00
2013-7-27,77,60,53,58,53,51,96,80,52,0.00,0.00,5,3,12,0.00
2013-7-28,72,58,53,57,53,51,94,82,56,0.00,0.00,5,2,13,0.00
2013-7-29,69,58,54,56,53,51,94,82,61,0.00,0.00,7,3,16,0.00
2013-7-30,74,60,53,58,54,51,96,80,56,0.00,0.00,5,2,12,0.00
2013-7-31,78,63,53,58,54,51,99,75,48,0.00,0.00,6,3,13,0.00
2013-8-1,80,63,46,56,51,45,96,70,43,0.00,0.00,6,2,13,0.00
2013-8-2,86,65,47,55,51,45,95,66,28,0.00,0.00,6,2,13,0.00
2013-8-3,78,60,49,57,52,46,99,79,46,0.00,0.00,6,2,12,0.00
2013-8-4,76,59,51,57,52,50,97,82,48,0.00,0.00,5,2,12,0.00
2013-8-5,74,59,51,57,52,50,96,80,52,0.00,0.00,5,2,12,0.00
2013-8-6,74,59,52,56,52,50,96,80,51,0.00,0.00,7,3,15,0.00
2013-8-7,69,60,55,56,54,52,94,80,63,0.00,0.00,6,2,14,0.00
2013-8-8,75,61,50,58,54,49,97,80,55,0.00,0.00,6,2,14,0.00
2013-8-9,76,60,53,57,54,52,98,82,49,0.00,0.00,6,3,13,0.00
2013-8-10,76,62,55,59,55,53,95,79,53,0.00,0.00,6,2,14,0.00
2013-8-11,78,62,54,60,56,53,100,82,51,0.00,0.00,6,3,12,0.00
2013-8-12,82,62,52,60,54,51,100,81,43,0.00,0.00,6,2,12,0.00
2013-8-13,92,67,52,60,54,47,99,69,22,0.00,0.00,6,2,14,0.00
2013-8-14,94,68,48,60,53,47,96,65,24,0.00,0.00,4,2,13,0.00
2013-8-15,88,70,54,64,59,51,94,72,44,0.00,0.00,6,2,14,0.00
2013-8-16,90,71,57,65,59,54,100,72,32,0.00,0.00,6,2,14,0.00
2013-8-17,88,72,52,61,57,51,96,62,37,0.00,0.00,5,2,11,0.00
2013-8-18,96,76,54,63,58,53,95,59,28,0.00,0.00,5,2,11,0.00
2013-8-19,86,70,59,62,58,55,89,68,38,0.00,0.00,5,2,11,0.00
2013-8-20,81,65,58,60,57,55,93,78,43,0.00,0.00,6,3,15,0.00
2013-8-21,77,64,54,58,55,51,91,75,47,0.00,0.00,5,2,13,0.00
2013-8-22,75,61,53,58,54,51,96,79,52,0.00,0.00,6,3,12,0.00
2013-8-23,79,64,52,59,55,50,94,75,49,0.00,0.00,5,2,11,0.00
2013-8-24,84,68,49,58,55,48,96,68,40,0.00,0.00,9,3,20,0.00
2013-8-25,78,66,56,62,58,55,94,77,56,0.00,0.00,6,3,14,0.00
2013-8-26,83,68,56,59,56,52,98,71,39,0.00,0.00,6,2,14,0.00
2013-8-27,87,67,50,58,54,48,95,66,33,0.00,0.00,7,2,15,0.00
2013-8-28,84,66,55,63,59,54,100,81,49,0.00,0.00,7,2,13,0.00
2013-8-29,86,70,59,63,60,58,98,76,46,0.00,0.00,6,2,15,0.00
2013-8-30,95,73,55,62,58,52,97,66,26,0.00,0.00,6,2,11,0.00
2013-8-31,87,68,52,60,55,48,94,69,28,0.00,0.00,5,2,11,0.00
2013-9-1,83,66,54,60,56,54,99,74,39,0.00,0.00,6,2,15,0.00
2013-9-2,82,68,55,62,58,54,96,74,45,0.00,0.00,8,2,19,0.00
2013-9-3,81,66,51,57,54,49,97,70,35,0.00,0.00,7,2,14,0.00
2013-9-4,84,67,51,58,55,50,97,69,41,0.00,0.00,5,2,13,0.00
2013-9-5,85,68,51,56,53,49,95,62,33,0.00,0.00,5,2,12,0.00
2013-9-6,93,71,51,56,50,44,92,53,19,0.00,0.00,6,2,13,0.00
2013-9-7,95,72,52,54,48,37,86,51,14,0.00,0.00,6,2,16,0.00
2013-9-8,92,68,50,60,54,49,98,66,26,0.00,0.00,5,2,10,0.00
2013-9-9,97,67,50,62,53,48,94,67,22,0.00,0.00,6,2,12,0.00
2013-9-10,69,61,54,60,57,53,98,87,69,0.00,0.00,8,2,18,0.00
2013-9-11,68,64,61,61,60,59,99,88,73,0.00,0.00,4,2,9,0.00
2013-9-12,80,66,57,63,59,56,97,81,54,0.00,0.00,6,2,11,0.01
2013-9-13,83,64,54,59,56,52,100,79,44,0.00,0.00,6,2,11,0.00
2013-9-14,81,62,52,59,55,50,100,81,48,0.00,0.00,5,2,12,0.00
2013-9-15,80,63,50,58,55,49,100,79,46,0.00,0.00,7,2,16,0.00
2013-9-16,87,66,53,59,55,51,100,74,34,0.00,0.00,5,2,12,0.00
2013-9-17,82,66,49,53,49,47,96,60,31,0.00,0.00,8,4,20,0.00
2013-9-18,84,67,51,50,46,37,86,54,20,0.00,0.00,7,2,16,0.00
2013-9-19,89,67,47,51,44,22,91,54,9,0.00,0.00,6,2,12,0.00
2013-9-20,77,59,44,62,52,42,96,78,51,0.00,0.00,8,3,20,0.00
2013-9-21,69,62,56,61,56,51,99,82,56,0.00,0.00,6,3,17,0.00
2013-9-22,76,61,47,54,51,46,99,73,42,0.00,0.00,5,2,15,0.00
2013-9-23,83,66,50,60,55,49,97,71,40,0.00,0.00,6,2,13,0.00
2013-9-24,80,66,57,57,50,46,93,60,30,0.00,0.00,9,4,19,0.00
2013-9-25,73,62,49,47,43,39,88,54,29,0.00,0.00,8,4,21,0.00
2013-9-26,78,63,44,43,39,30,84,45,18,0.00,0.00,6,3,15,0.00
2013-9-27,80,61,45,44,39,29,86,53,15,0.00,0.00,6,2,15,0.00
2013-9-28,81,62,44,55,44,29,89,60,15,0.00,0.00,6,2,14,0.00
2013-9-29,68,61,54,63,58,52,99,91,78,0.00,0.00,4,2,8,0.00
2013-9-30,72,64,54,65,61,50,99,92,75,0.00,0.00,5,2,10,0.00
2013-10-1,80,61,44,51,47,42,98,66,27,0.00,0.00,5,2,10,0.02
2013-10-2,81,62,47,49,42,28,97,56,14,0.00,0.00,7,3,17,0.00
2013-10-3,77,66,55,38,30,12,49,30,9,0.00,0.00,12,6,25,0.00
2013-10-4,83,69,53,34,23,16,47,20,9,0.00,0.00,16,5,26,0.00
2013-10-5,86,63,42,36,30,15,68,35,10,0.00,0.00,4,2,12,0.00
2013-10-6,86,61,42,40,34,28,73,42,14,0.00,0.00,4,2,9,0.00
2013-10-7,84,61,42,46,37,29,79,49,14,0.00,0.00,4,1,10,0.00
2013-10-8,78,59,43,46,42,38,92,58,25,0.00,0.00,5,2,13,0.00
2013-10-9,76,62,49,42,40,34,74,48,22,0.00,0.00,7,3,16,0.00
2013-10-10,74,58,45,50,43,40,83,60,34,0.00,0.00,6,2,15,0.00
2013-10-11,70,54,44,50,46,43,99,78,41,0.00,0.00,5,2,11,0.00
2013-10-12,74,55,41,50,44,40,99,72,35,0.00,0.00,5,2,11,0.00
2013-10-13,76,57,42,47,42,34,92,63,22,0.00,0.00,6,2,14,0.00
2013-10-14,81,58,41,43,39,36,92,56,21,0.00,0.00,6,2,13,0.00
2013-10-15,85,59,39,41,34,23,87,49,10,0.00,0.00,6,2,12,0.00
2013-10-16,84,58,38,37,32,26,81,45,13,0.00,0.00,6,1,11,0.00
2013-10-17,84,59,40,40,35,32,77,47,16,0.00,0.00,6,2,12,0.00
2013-10-18,82,58,39,45,40,36,89,58,22,0.00,0.00,4,1,9,0.00
2013-10-19,86,61,38,43,39,27,95,53,12,0.00,0.00,4,2,11,0.00
2013-10-20,82,55,38,48,42,36,98,69,25,0.00,0.00,4,1,9,0.00
2013-10-21,73,53,43,51,46,43,99,82,42,0.00,0.00,4,2,8,0.00
2013-10-22,80,54,42,50,46,42,100,80,33,0.00,0.00,4,2,8,0.00
2013-10-23,76,52,42,53,46,42,99,84,44,0.00,0.00,5,2,9,0.00
2013-10-24,66,52,44,49,47,42,100,86,50,0.00,0.00,5,2,10,0.00
2013-10-25,72,52,39,51,45,38,99,80,43,0.00,0.00,4,1,8,0.00
2013-10-26,84,56,38,49,43,36,97,68,22,0.00,0.00,4,1,11,0.00
2013-10-27,64,50,40,49,44,38,100,83,51,0.00,0.00,6,2,22,0.00
2013-10-28,66,54,40,45,42,38,94,66,39,0.00,0.00,6,2,22,0.00
2013-10-29,65,53,41,46,44,39,95,75,48,0.00,0.00,5,2,11,0.00
2013-10-30,68,50,37,46,41,36,98,73,40,0.00,0.00,4,2,12,0.00
2013-10-31,75,55,37,45,41,35,94,64,33,0.00,0.00,4,2,8,0.00
2013-11-1,80,55,40,46,42,38,94,68,27,0.00,0.00,3,1,8,0.00
2013-11-2,76,57,42,49,42,23,95,62,16,0.00,0.00,8,3,20,0.00
2013-11-3,66,55,42,36,31,26,72,42,22,0.00,0.00,10,3,20,0.00
2013-11-4,73,54,34,36,30,22,88,48,15,0.00,0.00,7,3,15,0.00
2013-11-5,77,57,40,40,36,32,77,51,20,0.00,0.00,5,2,10,0.00
2013-11-6,76,58,44,48,41,35,87,57,27,0.00,0.00,3,1,8,0.00
2013-11-7,76,58,46,50,42,37,95,60,27,0.00,0.00,4,2,9,0.00
2013-11-8,76,54,41,51,44,35,96,73,24,0.00,0.00,7,2,15,0.00
2013-11-9,75,53,36,47,42,35,98,71,31,0.00,0.00,6,2,12,0.00
2013-11-10,67,51,39,50,45,38,98,83,52,0.00,0.00,4,2,10,0.00
2013-11-11,67,54,40,48,46,39,99,79,47,0.00,0.00,5,2,9,0.00
2013-11-12,75,59,47,49,47,44,90,68,37,0.00,0.00,4,2,11,0.00
2013-11-13,81,57,44,53,48,42,98,77,34,0.00,0.00,5,2,9,0.00
2013-11-14,65,52,43,53,45,27,99,81,29,0.00,0.00,5,1,14,0.00
2013-11-15,69,53,40,40,36,32,87,57,26,0.00,0.00,5,2,10,0.00
2013-11-16,68,52,37,48,41,35,95,70,39,0.00,0.00,9,3,18,0.00
2013-11-17,63,48,37,48,43,36,97,83,54,0.00,0.00,4,2,9,0.00
2013-11-18,57,48,37,49,43,37,99,86,68,0.00,0.00,5,2,9,0.00
2013-11-19,56,53,50,56,53,49,100,99,96,0.00,0.00,4,1,8,0.00
2013-11-20,62,56,51,58,55,51,100,97,83,0.00,0.00,4,2,9,0.00
2013-11-21,64,56,49,52,31,10,100,53,14,0.00,0.00,17,6,35,0.00
2013-11-22,74,65,57,10,5,0,14,9,6,0.00,0.00,18,10,33,0.00
2013-11-23,69,59,38,33,21,6,81,28,10,0.00,0.00,12,4,24,0.00
2013-11-24,66,46,32,46,36,30,96,72,32,0.00,0.00,4,2,9,0.00
2013-11-25,65,46,34,42,39,33,97,78,39,0.00,0.00,4,1,9,0.00
2013-11-26,62,48,38,44,40,37,97,78,44,0.00,0.00,4,1,8,0.00
2013-11-27,66,49,36,44,41,35,98,77,43,0.00,0.00,3,1,7,0.00
2013-11-28,72,51,38,44,41,37,98,73,31,0.00,0.00,4,1,10,0.00
2013-11-29,70,51,38,45,42,36,97,75,36,0.00,0.00,4,2,9,0.00
2013-11-30,71,52,40,47,43,39,97,76,35,0.00,0.00,4,1,7,0.00
2013-12-1,72,52,39,49,44,38,98,78,39,0.00,0.00,5,1,8,0.00
2013-12-2,67,52,37,52,45,36,99,81,49,0.00,0.00,10,2,18,0.00
2013-12-3,56,50,38,52,32,23,93,52,28,0.00,0.00,11,4,21,0.00
2013-12-4,54,39,28,31,27,20,93,67,27,0.00,0.00,6,2,10,0.00
2013-12-5,51,35,24,31,26,20,94,73,33,0.00,0.00,4,1,9,0.00
2013-12-6,45,36,24,43,31,22,98,86,46,0.00,0.00,6,2,16,0.00
2013-12-7,47,40,28,41,28,20,98,65,38,0.00,0.00,10,4,19,0.00
2013-12-8,47,34,26,27,24,18,93,71,31,0.00,0.00,8,2,12,0.00
2013-12-9,51,34,22,27,24,20,94,71,34,0.00,0.00,5,2,9,0.00
2013-12-10,53,36,24,30,26,22,94,71,30,0.00,0.00,3,1,6,0.00
2013-12-11,57,39,27,34,30,26,96,75,38,0.00,0.00,4,1,8,0.00
2013-12-12,52,34,27,36,30,26,97,87,53,0.00,0.00,2,1,5,0.00
2013-12-13,64,45,29,38,35,28,97,71,34,0.00,0.00,3,1,6,0.00
2013-12-14,65,44,31,40,36,31,98,78,33,0.00,0.00,5,1,8,0.00
2013-12-15,62,43,30,41,37,29,98,81,43,0.00,0.00,3,1,6,0.00
2013-12-16,65,47,34,41,38,33,98,76,36,0.00,0.00,4,1,10,0.00
2013-12-17,64,48,34,42,38,34,98,74,37,0.00,0.00,3,1,6,0.00
2013-12-18,60,46,36,46,40,35,97,83,55,0.00,0.00,4,2,12,0.00
2013-12-19,62,51,36,36,29,16,71,45,20,0.00,0.00,9,5,21,0.00
2013-12-20,68,46,30,34,28,19,87,56,16,0.00,0.00,4,2,8,0.00
2013-12-21,68,52,42,46,42,35,96,72,39,0.00,0.00,7,2,11,0.00
2013-12-22,67,49,36,45,41,36,98,77,45,0.00,0.00,4,2,9,0.00
2013-12-23,68,48,35,45,40,35,98,77,40,0.00,0.00,3,1,7,0.00
2013-12-24,70,50,37,46,42,37,98,79,40,0.00,0.00,3,1,5,0.00
2013-12-25,41,38,36,41,38,35,98,98,97,0.00,0.00,1,1,3,0.00
2013-12-26,67,48,32,37,35,31,97,65,29,0.00,0.00,3,1,5,0.00
2013-12-27,56,42,32,42,36,31,97,80,46,0.00,0.00,3,1,6,0.00
2013-12-28,72,46,29,41,35,28,98,73,29,0.00,0.00,5,2,10,0.00
2013-12-29,67,46,32,34,30,26,90,59,22,0.00,0.00,5,2,10,0.00
2013-12-30,64,45,30,38,33,28,94,67,33,0.00,0.00,4,1,7,0.00
2013-12-31,64,45,35,43,37,34,97,78,36,0.00,0.00,5,1,9,0.00
2014-1-1,67,45,31,42,36,30,97,75,28,0.00,0.00,3,1,6,0.00
2014-1-2,66,47,34,42,38,33,97,74,36,0.00,0.00,3,1,6,0.00